createdAt,value
2022-10-17T00:00:36.004Z,100.00
2022-10-17T00:03:02.396Z,100.00
2022-10-17T00:05:28.870Z,100.00
2022-10-17T00:07:55.341Z,100.00
2022-10-17T00:10:21.953Z,100.00
2022-10-17T00:12:48.398Z,100.00
2022-10-17T00:15:16.090Z,100.00
2022-10-17T00:17:42.743Z,100.00
2022-10-17T00:20:09.680Z,100.00
2022-10-17T00:25:07.679Z,100.00
2022-10-17T00:27:37.803Z,100.00
2022-10-17T00:30:04.779Z,100.00
2022-10-17T00:32:31.435Z,100.00
2022-10-17T00:34:58.555Z,100.00
2022-10-17T00:37:25.172Z,100.00
2022-10-17T00:39:51.708Z,100.00
2022-10-17T00:42:18.183Z,100.00
2022-10-17T00:44:47.469Z,100.00
2022-10-17T00:47:14.924Z,100.00
2022-10-17T00:49:41.401Z,100.00
2022-10-17T00:52:09.089Z,100.00
2022-10-17T00:54:37.007Z,100.00
2022-10-17T00:57:03.557Z,100.00
2022-10-17T00:59:30.149Z,100.00
2022-10-17T01:02:02.623Z,100.00
2022-10-17T01:04:29.052Z,100.00
2022-10-17T01:06:55.492Z,100.00
2022-10-17T01:09:21.900Z,100.00
2022-10-17T01:12:07.291Z,100.00
2022-10-17T01:14:49.003Z,100.00
2022-10-17T01:17:28.275Z,100.00
2022-10-17T01:20:13.579Z,100.00
2022-10-17T01:22:47.820Z,100.00
2022-10-17T01:25:26.514Z,100.00
2022-10-17T01:28:11.268Z,100.00
2022-10-17T01:30:52.993Z,100.00
2022-10-17T01:33:22.524Z,100.00
2022-10-17T01:35:59.402Z,100.00
2022-10-17T01:38:32.248Z,100.00
2022-10-17T01:41:11.606Z,100.00
2022-10-17T01:43:39.764Z,100.00
2022-10-17T01:46:38.854Z,100.00
2022-10-17T01:49:05.918Z,100.00
2022-10-17T01:51:58.865Z,100.00
2022-10-17T01:54:26.862Z,100.00
2022-10-17T01:56:57.440Z,100.00
2022-10-17T01:59:24.805Z,100.00
2022-10-17T02:01:52.638Z,100.00
2022-10-17T02:04:19.116Z,100.00
2022-10-17T02:06:45.591Z,100.00
2022-10-17T02:09:18.146Z,100.00
2022-10-17T02:11:45.795Z,100.00
2022-10-17T02:14:41.821Z,100.00
2022-10-17T02:17:27.525Z,100.00
2022-10-17T02:20:00.425Z,100.00
2022-10-17T02:22:39.067Z,100.00
2022-10-17T02:25:10.115Z,100.00
2022-10-17T02:27:42.579Z,100.00
2022-10-17T02:30:10.982Z,100.00
2022-10-17T02:32:40.410Z,100.00
2022-10-17T02:35:07.852Z,100.00
2022-10-17T02:37:34.407Z,100.00
2022-10-17T02:40:00.812Z,100.00
2022-10-17T02:42:27.444Z,100.00
2022-10-17T02:44:54.124Z,100.00
2022-10-17T02:47:32.799Z,100.00
2022-10-17T02:49:59.290Z,100.00
2022-10-17T02:52:44.644Z,100.00
2022-10-17T02:55:11.071Z,100.00
2022-10-17T02:57:38.710Z,100.00
2022-10-17T03:00:06.424Z,100.00
2022-10-17T03:02:43.180Z,100.00
2022-10-17T03:05:10.009Z,100.00
2022-10-17T03:07:36.534Z,100.00
2022-10-17T03:10:03.425Z,100.00
2022-10-17T03:12:30.212Z,100.00
2022-10-17T03:14:56.926Z,100.00
2022-10-17T03:17:23.329Z,100.00
2022-10-17T03:19:49.747Z,100.00
2022-10-17T03:22:16.185Z,100.00
2022-10-17T03:24:42.636Z,100.00
2022-10-17T03:27:09.022Z,100.00
2022-10-17T03:29:35.441Z,100.00
2022-10-17T03:32:01.879Z,100.00
2022-10-17T03:34:28.515Z,100.00
2022-10-17T03:36:54.902Z,100.00
2022-10-17T03:39:21.328Z,100.00
2022-10-17T03:41:47.764Z,100.00
2022-10-17T03:44:14.270Z,100.00
2022-10-17T03:46:40.688Z,100.00
2022-10-17T03:49:07.147Z,100.00
2022-10-17T03:51:35.032Z,100.00
2022-10-17T03:54:01.533Z,100.00
2022-10-17T03:56:27.931Z,100.00
2022-10-17T03:58:54.887Z,100.00
2022-10-17T04:01:21.396Z,100.00
2022-10-17T04:03:54.598Z,100.00
2022-10-17T04:06:21.342Z,100.00
2022-10-17T04:08:47.995Z,100.00
2022-10-17T04:11:15.361Z,100.00
2022-10-17T04:13:42.268Z,100.00
2022-10-17T04:16:10.438Z,100.00
2022-10-17T04:18:36.907Z,100.00
2022-10-17T04:21:04.326Z,100.00
2022-10-17T04:23:30.922Z,100.00
2022-10-17T04:25:57.722Z,100.00
2022-10-17T04:28:24.556Z,100.00
2022-10-17T04:30:58.032Z,100.00
2022-10-17T04:33:24.474Z,100.00
2022-10-17T04:35:57.226Z,100.00
2022-10-17T04:38:27.675Z,100.00
2022-10-17T04:40:56.970Z,100.00
2022-10-17T04:43:23.433Z,100.00
2022-10-17T04:45:49.853Z,100.00
2022-10-17T04:48:16.244Z,100.00
2022-10-17T04:50:42.683Z,100.00
2022-10-17T04:53:09.280Z,100.00
2022-10-17T04:55:39.526Z,100.00
2022-10-17T04:58:05.958Z,100.00
2022-10-17T05:00:32.620Z,100.00
2022-10-17T05:02:59.141Z,100.00
2022-10-17T05:05:25.615Z,100.00
2022-10-17T05:07:52.064Z,100.00
2022-10-17T05:10:18.568Z,100.00
2022-10-17T05:12:46.504Z,100.00
2022-10-17T05:15:12.960Z,100.00
2022-10-17T05:17:39.508Z,100.00
2022-10-17T05:20:06.399Z,100.00
2022-10-17T05:22:32.928Z,100.00
2022-10-17T05:24:59.421Z,100.00
2022-10-17T05:27:25.866Z,100.00
2022-10-17T05:29:52.366Z,100.00
2022-10-17T05:32:18.909Z,100.00
2022-10-17T05:34:45.343Z,100.00
2022-10-17T05:37:11.809Z,100.00
2022-10-17T05:39:38.280Z,100.00
2022-10-17T05:42:04.673Z,100.00
2022-10-17T05:44:31.081Z,100.00
2022-10-17T05:46:57.549Z,100.00
2022-10-17T05:49:33.265Z,100.00
2022-10-17T05:52:10.430Z,100.00
2022-10-17T05:54:36.877Z,100.00
2022-10-17T05:57:03.362Z,100.00
2022-10-17T05:59:29.884Z,100.00
2022-10-17T06:01:56.358Z,100.00
2022-10-17T06:04:22.934Z,100.00
2022-10-17T06:06:49.446Z,100.00
2022-10-17T06:09:15.964Z,100.00
2022-10-17T06:11:42.378Z,100.00
2022-10-17T06:14:08.888Z,100.00
2022-10-17T06:16:35.351Z,100.00
2022-10-17T06:19:01.879Z,100.00
2022-10-17T06:21:28.733Z,100.00
2022-10-17T06:23:55.224Z,100.00
2022-10-17T06:26:22.072Z,100.00
2022-10-17T06:28:48.772Z,100.00
2022-10-17T06:31:16.163Z,100.00
2022-10-17T06:33:42.600Z,100.00
2022-10-17T06:36:10.684Z,100.00
2022-10-17T06:38:37.308Z,100.00
2022-10-17T06:41:08.632Z,100.00
2022-10-17T06:43:38.327Z,100.00
2022-10-17T06:46:04.933Z,100.00
2022-10-17T06:48:31.501Z,100.00
2022-10-17T06:51:01.482Z,100.00
2022-10-17T06:53:32.260Z,100.00
2022-10-17T06:56:03.296Z,100.00
2022-10-17T06:58:30.267Z,100.00
2022-10-17T07:01:03.971Z,100.00
2022-10-17T07:03:30.494Z,100.00
2022-10-17T07:05:57.192Z,100.00
2022-10-17T07:08:23.828Z,100.00
2022-10-17T07:10:50.626Z,100.00
2022-10-17T07:13:17.726Z,100.00
2022-10-17T07:15:44.237Z,100.00
2022-10-17T07:18:10.698Z,100.00
2022-10-17T07:20:37.386Z,100.00
2022-10-17T07:23:04.097Z,100.00
2022-10-17T07:25:30.670Z,100.00
2022-10-17T07:27:57.229Z,100.00
2022-10-17T07:30:23.727Z,100.00
2022-10-17T07:32:52.715Z,100.00
2022-10-17T07:35:19.247Z,100.00
2022-10-17T07:37:45.700Z,100.00
2022-10-17T07:40:12.201Z,100.00
2022-10-17T07:45:06.413Z,100.00
2022-10-17T07:47:35.739Z,100.00
2022-10-17T07:50:05.678Z,100.00
2022-10-17T07:52:32.555Z,100.00
2022-10-17T07:54:59.292Z,100.00
2022-10-17T07:57:25.839Z,100.00
2022-10-17T07:59:52.859Z,100.00
2022-10-17T08:02:23.745Z,100.00
2022-10-17T08:04:50.535Z,100.00
2022-10-17T08:07:23.268Z,100.00
2022-10-17T08:09:53.519Z,100.00
2022-10-17T08:12:20.240Z,100.00
2022-10-17T08:14:47.583Z,100.00
2022-10-17T08:17:14.199Z,100.00
2022-10-17T08:19:40.631Z,100.00
2022-10-17T08:22:07.203Z,100.00
2022-10-17T08:24:33.648Z,100.00
2022-10-17T08:27:00.750Z,100.00
2022-10-17T08:29:27.370Z,100.00
2022-10-17T08:31:58.559Z,100.00
2022-10-17T08:34:27.502Z,100.00
2022-10-17T08:36:54.003Z,100.00
2022-10-17T08:39:20.528Z,100.00
2022-10-17T08:42:07.296Z,100.00
2022-10-17T08:44:46.820Z,100.00
2022-10-17T08:47:14.612Z,100.00
2022-10-17T08:49:47.789Z,100.00
2022-10-17T08:52:32.664Z,100.00
2022-10-17T08:54:59.845Z,100.00
2022-10-17T08:57:26.535Z,100.00
2022-10-17T08:59:53.578Z,100.00
2022-10-17T09:02:20.098Z,100.00
2022-10-17T09:04:57.471Z,100.00
2022-10-17T09:07:33.090Z,100.00
2022-10-17T09:10:18.493Z,100.00
2022-10-17T09:12:49.090Z,100.00
2022-10-17T09:15:31.207Z,100.00
2022-10-17T09:18:24.200Z,100.00
2022-10-17T09:20:54.756Z,100.00
2022-10-17T09:23:21.475Z,100.00
2022-10-17T09:25:48.772Z,100.00
2022-10-17T09:28:17.745Z,100.00
2022-10-17T09:30:45.623Z,100.00
2022-10-17T09:33:35.165Z,100.00
2022-10-17T09:36:10.758Z,100.00
2022-10-17T09:38:39.447Z,100.00
2022-10-17T09:41:19.935Z,100.00
2022-10-17T09:43:52.962Z,100.00
2022-10-17T09:46:19.438Z,100.00
2022-10-17T09:48:53.259Z,100.00
2022-10-17T09:51:26.171Z,100.00
2022-10-17T09:53:57.336Z,100.00
2022-10-17T09:56:23.957Z,100.00
2022-10-17T09:58:53.030Z,100.00
2022-10-17T10:01:24.512Z,100.00
2022-10-17T10:04:10.107Z,100.00
2022-10-17T10:06:37.152Z,100.00
2022-10-17T10:09:05.667Z,100.00
2022-10-17T10:11:51.533Z,76.29
2022-10-17T10:14:22.826Z,71.64
2022-10-17T10:16:50.017Z,68.42
2022-10-17T10:19:33.786Z,70.37
2022-10-17T10:22:02.009Z,65.70
2022-10-17T10:24:30.999Z,62.92
2022-10-17T10:27:00.831Z,62.67
2022-10-17T10:29:59.976Z,65.06
2022-10-17T10:32:28.218Z,62.27
2022-10-17T10:34:59.320Z,60.36
2022-10-17T10:37:27.087Z,56.62
2022-10-17T10:39:53.777Z,49.84
2022-10-17T10:42:22.575Z,51.91
2022-10-17T10:44:49.192Z,52.91
2022-10-17T10:47:17.040Z,54.33
2022-10-17T10:49:44.037Z,54.30
2022-10-17T10:52:15.089Z,59.29
2022-10-17T10:54:44.111Z,59.26
2022-10-17T10:57:11.269Z,63.19
2022-10-17T10:59:40.310Z,64.26
2022-10-17T11:02:19.043Z,65.53
2022-10-17T11:04:50.987Z,70.26
2022-10-17T11:07:40.932Z,69.65
2022-10-17T11:10:19.844Z,68.60
2022-10-17T11:12:51.933Z,64.86
2022-10-17T11:15:18.768Z,65.82
2022-10-17T11:17:58.360Z,68.57
2022-10-17T11:20:30.218Z,69.27
2022-10-17T11:23:12.487Z,70.90
2022-10-17T11:25:39.139Z,70.47
2022-10-17T11:28:12.108Z,72.34
2022-10-17T11:33:25.188Z,73.53
2022-10-17T11:35:52.176Z,73.36
2022-10-17T11:38:32.454Z,69.95
2022-10-17T11:40:59.717Z,58.92
2022-10-17T11:43:31.588Z,52.77
2022-10-17T11:46:12.526Z,50.29
2022-10-17T11:48:48.550Z,44.69
2022-10-17T11:54:04.921Z,51.93
2022-10-17T11:56:43.757Z,56.75
2022-10-17T11:59:10.301Z,62.51
2022-10-17T12:01:47.949Z,65.54
2022-10-17T12:04:23.680Z,68.01
2022-10-17T12:06:53.413Z,69.90
2022-10-17T12:09:30.400Z,72.97
2022-10-17T12:11:58.286Z,76.22
2022-10-17T12:14:35.565Z,78.90
2022-10-17T12:17:02.387Z,82.46
2022-10-17T12:19:30.933Z,87.14
2022-10-17T12:22:17.896Z,85.17
2022-10-17T12:24:45.245Z,87.20
2022-10-17T12:27:29.566Z,93.42
2022-10-17T12:30:00.424Z,94.16
2022-10-17T12:32:30.321Z,97.59
2022-10-17T12:35:03.201Z,96.74
2022-10-17T12:37:41.871Z,94.07
2022-10-17T12:40:27.208Z,91.06
2022-10-17T12:42:53.708Z,91.01
2022-10-17T12:45:38.918Z,91.53
2022-10-17T12:48:08.856Z,91.29
2022-10-17T12:50:58.357Z,93.61
2022-10-17T12:53:54.255Z,91.56
2022-10-17T12:56:22.651Z,94.33
2022-10-17T12:58:49.929Z,98.45
2022-10-17T13:01:24.798Z,94.26
2022-10-17T13:03:52.680Z,94.06
2022-10-17T13:06:20.858Z,93.39
2022-10-17T13:08:50.918Z,92.96
2022-10-17T13:11:22.820Z,91.95
2022-10-17T13:13:50.070Z,91.58
2022-10-17T13:16:28.997Z,88.21
2022-10-17T13:18:55.579Z,88.07
2022-10-17T13:21:22.280Z,90.44
2022-10-17T13:23:51.175Z,92.23
2022-10-17T13:26:21.908Z,93.19
2022-10-17T13:29:01.861Z,94.74
2022-10-17T13:31:30.074Z,93.97
2022-10-17T13:33:57.693Z,93.87
2022-10-17T13:36:24.238Z,96.79
2022-10-17T13:38:50.740Z,96.93
2022-10-17T13:41:34.754Z,100.00
2022-10-17T13:44:03.412Z,100.00
2022-10-17T13:46:39.555Z,99.45
2022-10-17T13:49:18.718Z,100.00
2022-10-17T13:51:50.215Z,100.00
2022-10-17T13:54:27.776Z,100.00
2022-10-17T13:56:57.797Z,100.00
2022-10-17T13:59:25.316Z,100.00
2022-10-17T14:01:52.293Z,100.00
2022-10-17T14:04:20.400Z,100.00
2022-10-17T14:06:49.519Z,100.00
2022-10-17T14:09:18.762Z,100.00
2022-10-17T14:11:45.283Z,100.00
2022-10-17T14:14:19.321Z,100.00
2022-10-17T14:16:45.972Z,100.00
2022-10-17T14:19:24.505Z,100.00
2022-10-17T14:21:53.423Z,100.00
2022-10-17T14:24:19.861Z,100.00
2022-10-17T14:26:58.792Z,100.00
2022-10-17T14:29:29.412Z,100.00
2022-10-17T14:32:00.097Z,100.00
2022-10-17T14:34:34.398Z,100.00
2022-10-17T14:37:00.851Z,100.00
2022-10-17T14:39:27.639Z,100.00
2022-10-17T14:41:54.097Z,100.00
2022-10-17T14:44:23.525Z,100.00
2022-10-17T14:46:52.024Z,100.00
2022-10-17T14:49:34.550Z,100.00
2022-10-17T14:52:13.390Z,100.00
2022-10-17T14:54:44.381Z,100.00
2022-10-17T14:57:18.241Z,100.00
2022-10-17T14:59:59.915Z,100.00
2022-10-17T15:02:27.345Z,100.00
2022-10-17T15:04:53.979Z,100.00
2022-10-17T15:07:21.339Z,100.00
2022-10-17T15:09:48.488Z,100.00
2022-10-17T15:12:22.381Z,100.00
2022-10-17T15:14:48.976Z,100.00
2022-10-17T15:17:20.762Z,100.00
2022-10-17T15:19:47.718Z,100.00
2022-10-17T15:22:16.206Z,100.00
2022-10-17T15:24:42.773Z,100.00
2022-10-17T15:27:15.371Z,100.00
2022-10-17T15:29:41.848Z,100.00
2022-10-17T15:32:08.495Z,100.00
2022-10-17T15:34:34.929Z,100.00
2022-10-17T15:37:01.382Z,100.00
2022-10-17T15:39:27.832Z,100.00
2022-10-17T15:41:54.258Z,100.00
2022-10-17T15:44:20.688Z,100.00
2022-10-17T15:46:47.124Z,100.00
2022-10-17T15:49:14.357Z,100.00
2022-10-17T15:51:40.946Z,100.00
2022-10-17T15:54:07.548Z,100.00
2022-10-17T15:56:40.828Z,100.00
2022-10-17T15:59:08.686Z,100.00
2022-10-17T16:01:35.147Z,100.00
2022-10-17T16:04:01.697Z,100.00
2022-10-17T16:06:28.458Z,100.00
2022-10-17T16:08:54.951Z,100.00
2022-10-17T16:11:24.358Z,100.00
2022-10-17T16:13:51.358Z,100.00
2022-10-17T16:16:17.820Z,100.00
2022-10-17T16:18:44.245Z,100.00
2022-10-17T16:21:14.576Z,100.00
2022-10-17T16:23:41.175Z,100.00
2022-10-17T16:26:07.676Z,100.00
2022-10-17T16:28:34.304Z,100.00
2022-10-17T16:31:00.889Z,100.00
2022-10-17T16:33:27.315Z,100.00
2022-10-17T16:35:53.806Z,100.00
2022-10-17T16:38:20.244Z,100.00
2022-10-17T16:40:46.682Z,100.00
2022-10-17T16:43:13.258Z,100.00
2022-10-17T16:45:39.794Z,100.00
2022-10-17T16:48:06.329Z,100.00
2022-10-17T16:50:35.582Z,100.00
2022-10-17T16:53:03.912Z,100.00
2022-10-17T16:55:30.377Z,100.00
2022-10-17T16:57:57.010Z,100.00
2022-10-17T17:00:23.528Z,100.00
2022-10-17T17:02:50.023Z,100.00
2022-10-17T17:05:16.504Z,100.00
2022-10-17T17:07:42.956Z,100.00
2022-10-17T17:10:09.523Z,100.00
2022-10-17T17:12:36.174Z,100.00
2022-10-17T17:15:03.304Z,100.00
2022-10-17T17:17:48.349Z,100.00
2022-10-17T17:20:16.192Z,100.00
2022-10-17T17:22:42.815Z,100.00
2022-10-17T17:25:09.386Z,100.00
2022-10-17T17:27:35.855Z,100.00
2022-10-17T17:30:02.259Z,100.00
2022-10-17T17:32:28.684Z,100.00
2022-10-17T17:34:55.145Z,100.00
2022-10-17T17:37:21.571Z,100.00
2022-10-17T17:39:48.068Z,100.00
2022-10-17T17:42:14.571Z,100.00
2022-10-17T17:44:41.019Z,100.00
2022-10-17T17:47:07.911Z,100.00
2022-10-17T17:49:34.332Z,100.00
2022-10-17T17:52:00.843Z,100.00
2022-10-17T17:54:27.267Z,100.00
2022-10-17T17:56:53.698Z,100.00
2022-10-17T17:59:20.137Z,100.00
2022-10-17T18:01:46.737Z,100.00
2022-10-17T18:04:13.176Z,100.00
2022-10-17T18:06:40.137Z,100.00
2022-10-17T18:09:07.074Z,100.00
2022-10-17T18:11:33.650Z,100.00
2022-10-17T18:14:01.077Z,100.00
2022-10-17T18:16:27.954Z,100.00
2022-10-17T18:18:54.413Z,100.00
2022-10-17T18:21:21.001Z,100.00
2022-10-17T18:23:48.252Z,100.00
2022-10-17T18:26:15.015Z,100.00
2022-10-17T18:31:15.299Z,100.00
2022-10-17T18:33:42.940Z,100.00
2022-10-17T18:36:10.341Z,100.00
2022-10-17T18:38:37.370Z,100.00
2022-10-17T18:41:17.420Z,100.00
2022-10-17T18:43:45.108Z,100.00
2022-10-17T18:46:15.613Z,100.00
2022-10-17T18:48:44.587Z,100.00
2022-10-17T18:51:11.299Z,100.00
2022-10-17T18:53:41.776Z,100.00
2022-10-17T18:56:08.534Z,100.00
2022-10-17T18:58:35.087Z,100.00
2022-10-17T19:01:05.666Z,100.00
2022-10-17T19:03:32.515Z,100.00
2022-10-17T19:06:02.468Z,100.00
2022-10-17T19:08:29.142Z,100.00
2022-10-17T19:10:55.708Z,100.00
2022-10-17T19:13:22.170Z,100.00
2022-10-17T19:15:48.679Z,100.00
2022-10-17T19:18:15.142Z,100.00
2022-10-17T19:20:41.712Z,100.00
2022-10-17T19:23:08.379Z,100.00
2022-10-17T19:25:34.960Z,100.00
2022-10-17T19:28:01.536Z,100.00
2022-10-17T19:30:28.078Z,100.00
2022-10-17T19:32:54.619Z,100.00
2022-10-17T19:35:21.125Z,100.00
2022-10-17T19:37:47.587Z,100.00
2022-10-17T19:40:14.441Z,100.00
2022-10-17T19:42:41.011Z,100.00
2022-10-17T19:45:08.326Z,100.00
2022-10-17T19:47:35.039Z,100.00
2022-10-17T19:50:01.623Z,100.00
2022-10-17T19:52:28.481Z,100.00
2022-10-17T19:54:55.162Z,100.00
2022-10-17T19:57:21.718Z,100.00
2022-10-17T19:59:50.237Z,100.00
2022-10-17T20:02:19.048Z,100.00
2022-10-17T20:04:54.592Z,100.00
2022-10-17T20:07:32.124Z,100.00
2022-10-17T20:09:58.739Z,100.00
2022-10-17T20:12:25.273Z,100.00
2022-10-17T20:14:51.855Z,100.00
2022-10-17T20:17:18.344Z,100.00
2022-10-17T20:19:45.004Z,100.00
2022-10-17T20:22:11.510Z,100.00
2022-10-17T20:24:38.202Z,100.00
2022-10-17T20:27:04.703Z,100.00
2022-10-17T20:29:31.274Z,100.00
2022-10-17T20:31:57.894Z,100.00
2022-10-17T20:34:24.438Z,100.00
2022-10-17T20:36:51.153Z,100.00
2022-10-17T20:39:18.579Z,100.00
2022-10-17T20:41:45.314Z,100.00
2022-10-17T20:44:12.118Z,100.00
2022-10-17T20:46:44.677Z,100.00
2022-10-17T20:49:16.156Z,100.00
2022-10-17T20:51:42.730Z,100.00
2022-10-17T20:54:09.340Z,100.00
2022-10-17T20:56:35.985Z,100.00
2022-10-17T20:59:04.228Z,100.00
2022-10-17T21:01:31.459Z,100.00
2022-10-17T21:04:06.113Z,100.00
2022-10-17T21:06:42.734Z,100.00
2022-10-17T21:09:09.457Z,100.00
2022-10-17T21:11:36.150Z,100.00
2022-10-17T21:14:04.342Z,100.00
2022-10-17T21:16:31.616Z,100.00
2022-10-17T21:18:58.216Z,100.00
2022-10-17T21:21:26.887Z,100.00
2022-10-17T21:23:54.735Z,100.00
2022-10-17T21:26:21.387Z,100.00
2022-10-17T21:28:48.370Z,100.00
2022-10-17T21:31:16.074Z,100.00
2022-10-17T21:33:43.549Z,100.00
2022-10-17T21:36:10.264Z,100.00
2022-10-17T21:38:37.527Z,100.00
2022-10-17T21:41:04.694Z,100.00
2022-10-17T21:43:31.543Z,100.00
2022-10-17T21:46:01.092Z,100.00
2022-10-17T21:48:27.646Z,100.00
2022-10-17T21:50:58.314Z,100.00
2022-10-17T21:53:24.780Z,100.00
2022-10-17T21:55:51.209Z,100.00
2022-10-17T21:58:17.712Z,100.00
2022-10-17T22:00:44.185Z,100.00
2022-10-17T22:03:12.827Z,100.00
2022-10-17T22:05:39.296Z,100.00
2022-10-17T22:08:05.783Z,100.00
2022-10-17T22:10:32.246Z,100.00
2022-10-17T22:12:58.705Z,100.00
2022-10-17T22:15:25.151Z,100.00
2022-10-17T22:17:51.652Z,100.00
2022-10-17T22:20:18.158Z,100.00
2022-10-17T22:22:44.606Z,100.00
2022-10-17T22:25:11.145Z,100.00
2022-10-17T22:27:37.598Z,100.00
2022-10-17T22:30:04.683Z,100.00
2022-10-17T22:32:31.243Z,100.00
2022-10-17T22:34:57.685Z,100.00
2022-10-17T22:37:24.151Z,100.00
2022-10-17T22:39:50.659Z,100.00
2022-10-17T22:42:17.178Z,100.00
2022-10-17T22:44:44.352Z,100.00
2022-10-17T22:47:10.916Z,100.00
2022-10-17T22:49:37.512Z,100.00
2022-10-17T22:52:04.161Z,100.00
2022-10-17T22:54:30.670Z,100.00
2022-10-17T22:56:57.414Z,100.00
2022-10-17T22:59:23.926Z,100.00
2022-10-17T23:01:50.619Z,100.00
2022-10-17T23:04:17.532Z,100.00
2022-10-17T23:06:44.202Z,100.00
2022-10-17T23:09:12.098Z,100.00
2022-10-17T23:11:38.688Z,100.00
2022-10-17T23:14:05.687Z,100.00
2022-10-17T23:16:32.287Z,100.00
2022-10-17T23:18:58.793Z,100.00
2022-10-17T23:21:25.319Z,100.00
2022-10-17T23:23:51.809Z,100.00
2022-10-17T23:26:18.353Z,100.00
2022-10-17T23:28:44.986Z,100.00
2022-10-17T23:31:18.665Z,100.00
2022-10-17T23:33:45.855Z,100.00
2022-10-17T23:36:13.164Z,100.00
2022-10-17T23:38:40.507Z,100.00
2022-10-17T23:41:07.208Z,100.00
2022-10-17T23:43:34.363Z,100.00
2022-10-17T23:46:01.440Z,100.00
2022-10-17T23:48:28.109Z,100.00
2022-10-17T23:50:55.972Z,100.00
2022-10-17T23:53:23.022Z,100.00
2022-10-17T23:55:49.842Z,100.00
2022-10-17T23:58:16.400Z,100.00
